createdAt,value
2018-02-03T00:02:01.659Z,11.83
2018-02-03T00:07:09.679Z,12.20
2018-02-03T00:09:37.768Z,12.40
2018-02-03T00:12:06.232Z,10.60
2018-02-03T00:14:34.274Z,9.50
2018-02-03T00:17:01.773Z,10.97
2018-02-03T00:19:29.451Z,11.17
2018-02-03T00:21:57.109Z,10.83
2018-02-03T00:24:24.792Z,7.13
2018-02-03T00:26:52.417Z,10.77
2018-02-03T00:29:20.070Z,9.87
2018-02-03T00:31:48.069Z,8.00
2018-02-03T00:34:15.734Z,8.23
2018-02-03T00:36:43.334Z,7.13
2018-02-03T00:39:11.981Z,4.03
2018-02-03T00:41:39.643Z,6.43
2018-02-03T00:44:08.616Z,9.53
2018-02-03T00:46:36.325Z,7.50
2018-02-03T00:49:03.964Z,5.50
2018-02-03T00:51:31.594Z,5.43
2018-02-03T00:53:59.297Z,4.97
2018-02-03T00:56:26.964Z,4.73
2018-02-03T00:58:54.542Z,5.37
2018-02-03T01:01:22.240Z,6.60
2018-02-03T01:03:49.884Z,7.50
2018-02-03T01:06:17.538Z,5.63
2018-02-03T01:08:45.260Z,6.60
2018-02-03T01:11:12.883Z,7.23
2018-02-03T01:13:40.539Z,5.40
2018-02-03T01:16:09.132Z,5.97
2018-02-03T01:18:36.828Z,6.73
2018-02-03T01:21:04.457Z,4.87
2018-02-03T01:23:32.948Z,4.47
2018-02-03T01:26:00.602Z,5.90
2018-02-03T01:31:07.895Z,5.80
2018-02-03T01:33:35.778Z,4.23
2018-02-03T01:36:03.367Z,5.57
2018-02-03T01:38:31.057Z,7.80
2018-02-03T01:40:58.730Z,5.20
2018-02-03T01:43:26.363Z,5.07
2018-02-03T01:45:54.056Z,3.93
2018-02-03T01:48:21.692Z,6.47
2018-02-03T01:50:49.328Z,5.20
2018-02-03T01:53:17.035Z,4.63
2018-02-03T01:55:44.697Z,5.13
2018-02-03T01:58:12.358Z,4.17
2018-02-03T02:00:40.808Z,6.13
2018-02-03T02:03:08.442Z,4.43
2018-02-03T02:05:36.080Z,4.57
2018-02-03T02:08:03.853Z,4.20
2018-02-03T02:10:31.505Z,5.10
2018-02-03T02:12:59.153Z,4.73
2018-02-03T02:15:26.851Z,3.37
2018-02-03T02:17:54.722Z,5.33
2018-02-03T02:20:22.376Z,4.60
2018-02-03T02:22:50.056Z,6.80
2018-02-03T02:25:17.749Z,3.43
2018-02-03T02:27:46.537Z,4.90
2018-02-03T02:30:14.228Z,4.23
2018-02-03T02:32:41.882Z,4.63
2018-02-03T02:35:09.505Z,3.17
2018-02-03T02:37:37.210Z,5.80
2018-02-03T02:40:04.904Z,3.60
2018-02-03T02:42:33.306Z,5.07
2018-02-03T02:45:00.989Z,4.63
2018-02-03T02:47:28.662Z,3.40
2018-02-03T02:52:35.485Z,3.92
2018-02-03T02:55:03.125Z,4.53
2018-02-03T02:57:30.763Z,5.17
2018-02-03T02:59:58.461Z,3.77
2018-02-03T03:02:26.105Z,5.07
2018-02-03T03:04:54.740Z,2.93
2018-02-03T03:07:22.435Z,4.07
2018-02-03T03:09:50.057Z,3.97
2018-02-03T03:12:20.885Z,3.60
2018-02-03T03:14:48.577Z,6.00
2018-02-03T03:17:16.203Z,5.13
2018-02-03T03:19:43.856Z,3.00
2018-02-03T03:22:11.570Z,3.83
2018-02-03T03:24:39.200Z,3.33
2018-02-03T03:27:07.327Z,3.23
2018-02-03T03:29:37.400Z,6.20
2018-02-03T03:32:04.884Z,5.53
2018-02-03T03:34:32.531Z,5.03
2018-02-03T03:37:00.229Z,4.07
2018-02-03T03:39:27.904Z,3.70
2018-02-03T03:41:55.545Z,3.23
2018-02-03T03:44:23.226Z,2.70
2018-02-03T03:46:50.849Z,6.37
2018-02-03T03:49:18.510Z,4.30
2018-02-03T03:51:46.207Z,4.23
2018-02-03T03:54:13.846Z,3.63
2018-02-03T03:56:41.486Z,3.23
2018-02-03T03:59:09.197Z,6.47
2018-02-03T04:01:36.827Z,4.73
2018-02-03T04:04:04.464Z,5.27
2018-02-03T04:09:14.676Z,4.60
2018-02-03T04:11:42.317Z,4.93
2018-02-03T04:14:09.970Z,4.53
2018-02-03T04:16:38.711Z,4.33
2018-02-03T04:19:06.388Z,5.13
2018-02-03T04:21:34.022Z,4.53
2018-02-03T04:24:01.652Z,5.00
2018-02-03T04:26:29.402Z,5.23
2018-02-03T04:28:57.010Z,5.47
2018-02-03T04:31:24.676Z,4.40
2018-02-03T04:33:52.339Z,4.17
2018-02-03T04:36:19.975Z,3.17
2018-02-03T04:38:47.590Z,3.40
2018-02-03T04:41:15.336Z,5.23
2018-02-03T04:43:42.960Z,3.37
2018-02-03T04:46:10.976Z,7.20
2018-02-03T04:48:38.661Z,7.37
2018-02-03T04:51:06.292Z,4.63
2018-02-03T04:53:33.927Z,4.97
2018-02-03T04:56:05.001Z,3.77
2018-02-03T04:58:32.624Z,3.20
2018-02-03T05:01:00.252Z,4.10
2018-02-03T05:03:28.834Z,3.37
2018-02-03T05:05:56.473Z,5.07
2018-02-03T05:08:24.108Z,3.10
2018-02-03T05:10:51.832Z,3.27
2018-02-03T05:13:19.663Z,4.10
2018-02-03T05:15:47.795Z,3.93
2018-02-03T05:18:15.471Z,2.03
2018-02-03T05:20:43.102Z,4.80
2018-02-03T05:23:10.740Z,2.30
2018-02-03T05:28:21.568Z,4.47
2018-02-03T05:30:49.299Z,3.20
2018-02-03T05:35:48.752Z,3.13
2018-02-03T05:38:16.450Z,4.80
2018-02-03T05:40:47.539Z,3.97
2018-02-03T05:43:15.183Z,2.93
2018-02-03T05:45:43.479Z,4.73
2018-02-03T05:48:11.134Z,4.27
2018-02-03T05:50:39.094Z,3.47
2018-02-03T05:58:10.789Z,3.97
2018-02-03T06:00:38.452Z,2.60
2018-02-03T06:03:06.064Z,2.70
2018-02-03T06:05:33.773Z,3.17
2018-02-03T06:08:01.555Z,2.40
2018-02-03T06:10:29.203Z,6.07
2018-02-03T06:12:56.908Z,2.40
2018-02-03T06:15:25.646Z,2.73
2018-02-03T06:17:53.289Z,2.60
2018-02-03T06:20:20.970Z,3.37
2018-02-03T06:22:48.616Z,3.43
2018-02-03T06:25:16.238Z,7.57
2018-02-03T06:27:43.946Z,8.50
2018-02-03T06:30:11.624Z,8.53
2018-02-03T06:32:39.239Z,7.47
2018-02-03T06:35:07.402Z,5.67
2018-02-03T06:37:35.025Z,2.33
2018-02-03T06:40:02.682Z,4.03
2018-02-03T06:42:30.378Z,3.67
2018-02-03T06:44:58.039Z,3.33
2018-02-03T06:47:25.696Z,3.97
2018-02-03T06:49:54.325Z,4.83
2018-02-03T06:55:01.166Z,2.83
2018-02-03T06:57:28.791Z,9.53
2018-02-03T06:59:56.413Z,6.50
2018-02-03T07:02:24.114Z,6.13
2018-02-03T07:04:51.739Z,4.83
2018-02-03T07:07:19.380Z,4.53
2018-02-03T07:09:47.084Z,3.10
2018-02-03T07:12:14.723Z,5.77
2018-02-03T07:14:42.388Z,3.47
2018-02-03T07:17:10.061Z,4.27
2018-02-03T07:19:37.711Z,6.03
2018-02-03T07:22:05.350Z,3.83
2018-02-03T07:24:33.027Z,3.33
2018-02-03T07:27:00.667Z,7.47
2018-02-03T07:29:28.309Z,6.13
2018-02-03T07:31:56.023Z,10.83
2018-02-03T07:34:24.502Z,8.43
2018-02-03T07:36:52.132Z,4.93
2018-02-03T07:39:19.808Z,9.23
2018-02-03T07:41:47.570Z,7.27
2018-02-03T07:44:15.184Z,6.60
2018-02-03T07:46:42.890Z,7.23
2018-02-03T07:49:10.507Z,10.37
2018-02-03T07:51:38.142Z,10.70
2018-02-03T07:54:05.887Z,9.10
2018-02-03T07:56:33.524Z,6.83
2018-02-03T07:59:01.161Z,4.50
2018-02-03T08:01:31.967Z,7.07
2018-02-03T08:03:59.601Z,9.40
2018-02-03T08:06:27.245Z,8.00
2018-02-03T08:08:54.935Z,4.90
2018-02-03T08:11:22.608Z,6.43
2018-02-03T08:13:50.252Z,6.90
2018-02-03T08:16:17.955Z,4.60
2018-02-03T08:21:24.728Z,5.50
2018-02-03T08:23:52.361Z,5.07
2018-02-03T08:26:20.840Z,5.13
2018-02-03T08:28:48.528Z,5.40
2018-02-03T08:31:16.144Z,4.90
2018-02-03T08:33:43.792Z,4.87
2018-02-03T08:36:11.496Z,4.37
2018-02-03T08:38:39.140Z,5.60
2018-02-03T08:41:06.784Z,4.80
2018-02-03T08:43:35.440Z,6.23
2018-02-03T08:46:03.920Z,8.40
2018-02-03T08:48:31.555Z,6.77
2018-02-03T08:50:59.276Z,8.40
2018-02-03T08:53:27.936Z,6.07
2018-02-03T08:55:55.548Z,6.80
2018-02-03T08:58:24.853Z,6.00
2018-02-03T09:00:52.485Z,8.40
2018-02-03T09:03:20.134Z,4.60
2018-02-03T09:05:48.582Z,5.43
2018-02-03T09:08:16.226Z,7.10
2018-02-03T09:10:43.852Z,8.70
2018-02-03T09:13:11.556Z,8.70
2018-02-03T09:15:39.201Z,9.70
2018-02-03T09:18:06.844Z,6.80
2018-02-03T09:20:34.596Z,5.83
2018-02-03T09:23:02.192Z,7.77
2018-02-03T09:25:29.836Z,4.87
2018-02-03T09:27:57.516Z,4.60
2018-02-03T09:30:25.158Z,9.03
2018-02-03T09:32:52.778Z,6.50
2018-02-03T09:35:20.500Z,10.90
2018-02-03T09:37:48.148Z,10.47
2018-02-03T09:40:15.789Z,8.57
2018-02-03T09:42:43.510Z,11.03
2018-02-03T09:47:51.167Z,8.40
2018-02-03T09:50:18.857Z,7.73
2018-02-03T09:52:46.478Z,6.30
2018-02-03T09:55:14.163Z,5.70
2018-02-03T09:57:41.808Z,5.23
2018-02-03T10:00:09.457Z,6.00
2018-02-03T10:02:37.141Z,4.30
2018-02-03T10:05:13.081Z,4.50
2018-02-03T10:07:40.820Z,3.50
2018-02-03T10:10:08.910Z,7.77
2018-02-03T10:12:38.182Z,7.00
2018-02-03T10:17:40.215Z,5.40
2018-02-03T10:20:09.347Z,5.53
2018-02-03T10:22:38.250Z,7.87
2018-02-03T10:25:07.206Z,4.83
2018-02-03T10:27:41.822Z,9.87
2018-02-03T10:41:10.184Z,7.97
2018-02-03T10:43:37.833Z,8.17
2018-02-03T10:46:05.537Z,10.67
2018-02-03T10:48:35.945Z,8.93
2018-02-03T10:51:03.318Z,7.37
2018-02-03T10:53:31.109Z,10.80
2018-02-03T10:55:58.788Z,7.77
2018-02-03T10:58:27.014Z,13.53
2018-02-03T11:00:54.628Z,5.20
2018-02-03T11:03:22.293Z,8.07
2018-02-03T11:05:49.935Z,5.93
2018-02-03T11:08:19.359Z,4.23
2018-02-03T11:10:47.021Z,8.10
2018-02-03T11:13:14.653Z,6.77
2018-02-03T11:15:42.281Z,8.13
2018-02-03T11:18:09.989Z,7.17
2018-02-03T11:20:37.639Z,5.17
2018-02-03T11:23:05.274Z,8.83
2018-02-03T11:25:36.622Z,8.73
2018-02-03T11:30:46.421Z,9.68
2018-02-03T11:33:16.940Z,8.23
2018-02-03T11:35:44.128Z,12.90
2018-02-03T11:38:13.352Z,6.23
2018-02-03T11:45:47.910Z,12.83
2018-02-03T11:48:16.105Z,9.10
2018-02-03T11:50:47.023Z,9.47
2018-02-03T11:53:14.378Z,9.17
2018-02-03T11:55:44.525Z,8.03
2018-02-03T11:58:12.105Z,8.13
2018-02-03T12:00:40.244Z,8.93
2018-02-03T12:03:08.709Z,11.07
2018-02-03T12:05:36.405Z,11.93
2018-02-03T12:08:04.043Z,12.23
2018-02-03T12:10:33.795Z,12.10
2018-02-03T12:13:01.464Z,9.83
2018-02-03T12:15:29.109Z,10.57
2018-02-03T12:17:57.558Z,12.67
2018-02-03T12:20:25.304Z,13.60
2018-02-03T12:22:52.937Z,9.47
2018-02-03T12:25:21.515Z,14.60
2018-02-03T12:27:49.221Z,11.70
2018-02-03T12:30:16.849Z,12.37
2018-02-03T12:32:44.486Z,14.80
2018-02-03T12:35:12.161Z,10.83
2018-02-03T12:37:39.842Z,12.90
2018-02-03T12:40:07.772Z,22.10
2018-02-03T12:42:37.488Z,12.23
2018-02-03T12:45:05.086Z,13.03
2018-02-03T12:50:15.371Z,11.90
2018-02-03T12:55:24.083Z,13.18
2018-02-03T12:57:52.004Z,14.70
2018-02-03T13:00:20.391Z,11.37
2018-02-03T13:02:50.611Z,10.27
2018-02-03T13:05:19.497Z,14.37
2018-02-03T13:07:47.921Z,14.50
2018-02-03T13:10:17.751Z,11.07
2018-02-03T13:12:46.089Z,15.90
2018-02-03T13:15:14.392Z,8.23
2018-02-03T13:17:42.645Z,10.67
2018-02-03T13:22:57.061Z,12.43
2018-02-03T13:25:26.634Z,11.23
2018-02-03T13:27:58.104Z,13.37
2018-02-03T13:30:29.385Z,11.10
2018-02-03T13:32:58.341Z,11.27
2018-02-03T13:38:07.146Z,12.70
2018-02-03T13:40:34.762Z,13.57
2018-02-03T13:43:02.409Z,11.37
2018-02-03T13:45:30.121Z,12.47
2018-02-03T13:47:57.743Z,11.97
2018-02-03T13:50:25.372Z,11.67
2018-02-03T13:52:53.052Z,9.20
2018-02-03T13:55:21.197Z,15.13
2018-02-03T13:57:48.794Z,10.43
2018-02-03T14:00:16.571Z,10.87
2018-02-03T14:02:44.199Z,12.10
2018-02-03T14:05:11.846Z,11.37
2018-02-03T14:07:39.612Z,13.43
2018-02-03T14:10:07.244Z,12.33
2018-02-03T14:12:34.921Z,11.27
2018-02-03T14:15:02.626Z,10.27
2018-02-03T14:17:30.794Z,12.37
2018-02-03T14:19:58.414Z,14.87
2018-02-03T14:22:28.848Z,12.37
2018-02-03T14:25:02.755Z,12.13
2018-02-03T14:27:30.433Z,10.23
2018-02-03T14:29:58.117Z,12.03
2018-02-03T14:32:25.778Z,8.73
2018-02-03T14:34:53.482Z,8.27
2018-02-03T14:37:21.086Z,14.63
2018-02-03T14:39:48.720Z,8.60
2018-02-03T14:42:16.431Z,11.67
2018-02-03T14:44:44.057Z,11.27
2018-02-03T14:47:11.691Z,8.87
2018-02-03T14:49:39.402Z,8.83
2018-02-03T14:54:46.988Z,10.73
2018-02-03T14:57:15.179Z,9.73
2018-02-03T14:59:46.316Z,12.97
2018-02-03T15:07:16.960Z,13.43
2018-02-03T15:09:44.601Z,10.37
2018-02-03T15:12:12.248Z,14.40
2018-02-03T15:17:15.973Z,12.07
2018-02-03T15:19:44.244Z,12.13
2018-02-03T15:22:11.786Z,9.40
2018-02-03T15:24:39.426Z,15.87
2018-02-03T15:27:07.189Z,10.20
2018-02-03T15:29:34.838Z,14.47
2018-02-03T15:32:02.446Z,12.93
2018-02-03T15:34:30.161Z,11.87
2018-02-03T15:36:57.797Z,10.20
2018-02-03T15:39:25.445Z,15.27
2018-02-03T15:41:54.148Z,12.90
2018-02-03T15:44:21.818Z,18.77
2018-02-03T15:46:50.233Z,51.10
2018-02-03T15:49:17.934Z,12.30
2018-02-03T15:51:48.324Z,15.83
2018-02-03T15:54:15.947Z,12.03
2018-02-03T15:56:43.647Z,13.33
2018-02-03T15:59:11.295Z,16.53
2018-02-03T16:01:38.908Z,15.13
2018-02-03T16:04:06.635Z,19.43
2018-02-03T16:06:34.271Z,12.40
2018-02-03T16:11:42.058Z,16.60
2018-02-03T16:14:09.692Z,17.50
2018-02-03T16:16:37.309Z,18.33
2018-02-03T16:19:05.018Z,12.87
2018-02-03T16:21:32.655Z,17.70
2018-02-03T16:24:00.259Z,15.03
2018-02-03T16:26:27.970Z,14.87
2018-02-03T16:28:55.588Z,16.13
2018-02-03T16:31:23.239Z,14.67
2018-02-03T16:33:50.935Z,15.33
2018-02-03T16:36:18.542Z,12.33
2018-02-03T16:38:46.163Z,13.40
2018-02-03T16:41:13.884Z,16.10
2018-02-03T16:43:41.496Z,15.87
2018-02-03T16:46:09.137Z,12.87
2018-02-03T16:48:36.873Z,13.53
2018-02-03T16:51:04.510Z,13.27
2018-02-03T16:53:32.151Z,11.60
2018-02-03T16:55:59.836Z,13.07
2018-02-03T16:58:29.479Z,13.97
2018-02-03T17:00:58.031Z,15.60
2018-02-03T17:03:25.715Z,13.30
2018-02-03T17:05:53.345Z,12.67
2018-02-03T17:08:20.990Z,14.87
2018-02-03T17:10:48.692Z,11.03
2018-02-03T17:13:16.337Z,12.00
2018-02-03T17:15:44.005Z,9.63
2018-02-03T17:18:11.742Z,16.37
2018-02-03T17:20:39.370Z,9.57
2018-02-03T17:23:07.019Z,11.37
2018-02-03T17:25:34.708Z,11.67
2018-02-03T17:28:02.357Z,10.17
2018-02-03T17:30:29.999Z,13.13
2018-02-03T17:35:38.334Z,13.75
2018-02-03T17:38:11.792Z,17.07
2018-02-03T17:40:39.424Z,12.40
2018-02-03T17:43:07.921Z,13.80
2018-02-03T17:45:41.314Z,14.43
2018-02-03T17:48:09.268Z,11.77
2018-02-03T17:50:37.099Z,13.03
2018-02-03T17:53:04.776Z,13.73
2018-02-03T17:55:38.093Z,15.47
2018-02-03T17:58:05.791Z,18.17
2018-02-03T18:00:33.421Z,13.97
2018-02-03T18:03:02.576Z,18.27
2018-02-03T18:05:30.304Z,15.63
2018-02-03T18:07:57.942Z,18.70
2018-02-03T18:10:25.613Z,21.87
2018-02-03T18:12:53.344Z,20.77
2018-02-03T18:15:20.994Z,21.03
2018-02-03T18:17:49.443Z,20.83
2018-02-03T18:20:17.120Z,23.40
2018-02-03T18:22:44.765Z,22.53
2018-02-03T18:25:13.222Z,24.00
2018-02-03T18:27:40.891Z,20.57
2018-02-03T18:30:08.723Z,23.10
2018-02-03T18:35:15.525Z,20.65
2018-02-03T18:37:43.175Z,21.70
2018-02-03T18:40:10.788Z,23.97
2018-02-03T18:42:39.328Z,26.70
2018-02-03T18:45:06.968Z,18.17
2018-02-03T18:47:34.614Z,24.47
2018-02-03T18:50:02.355Z,25.50
2018-02-03T18:52:30.902Z,28.30
2018-02-03T18:54:58.542Z,22.27
2018-02-03T18:57:27.820Z,21.17
2018-02-03T18:59:55.296Z,27.27
2018-02-03T19:02:22.948Z,25.20
2018-02-03T19:04:50.662Z,22.10
2018-02-03T19:07:18.330Z,24.50
2018-02-03T19:09:46.045Z,19.87
2018-02-03T19:12:13.753Z,25.30
2018-02-03T19:14:42.293Z,24.97
2018-02-03T19:17:09.927Z,23.33
2018-02-03T19:19:37.619Z,24.60
2018-02-03T19:22:05.273Z,24.27
2018-02-03T19:27:06.696Z,21.77
2018-02-03T19:29:34.345Z,52.30
2018-02-03T19:32:01.993Z,108.10
2018-02-03T19:34:29.725Z,84.70
2018-02-03T19:36:58.233Z,25.97
2018-02-03T19:39:25.853Z,25.27
2018-02-03T19:41:53.588Z,22.13
2018-02-03T19:44:21.257Z,26.60
2018-02-03T19:49:28.145Z,29.63
2018-02-03T19:51:55.784Z,26.90
2018-02-03T19:54:23.430Z,31.00
2018-02-03T19:56:51.125Z,32.33
2018-02-03T19:59:18.757Z,31.10
2018-02-03T20:01:46.382Z,28.10
2018-02-03T20:04:14.102Z,28.03
2018-02-03T20:06:41.746Z,29.13
2018-02-03T20:09:09.411Z,29.67
2018-02-03T20:11:37.074Z,24.70
2018-02-03T20:14:04.721Z,25.83
2018-02-03T20:16:32.370Z,27.70
2018-02-03T20:19:00.125Z,27.73
2018-02-03T20:21:27.768Z,29.97
2018-02-03T20:23:55.404Z,31.20
2018-02-03T20:26:23.140Z,30.87
2018-02-03T20:28:50.807Z,29.10
2018-02-03T20:31:18.805Z,33.50
2018-02-03T20:33:47.318Z,34.47
2018-02-03T20:36:14.958Z,31.67
2018-02-03T20:38:42.602Z,34.17
2018-02-03T20:41:10.279Z,32.43
2018-02-03T20:43:39.547Z,29.80
2018-02-03T20:46:06.962Z,29.67
2018-02-03T20:51:13.968Z,29.25
2018-02-03T20:53:41.666Z,25.87
2018-02-03T20:56:09.283Z,25.97
2018-02-03T20:58:36.960Z,24.93
2018-02-03T21:01:04.627Z,23.30
2018-02-03T21:03:32.283Z,24.30
2018-02-03T21:05:59.903Z,23.03
2018-02-03T21:08:27.641Z,24.63
2018-02-03T21:10:55.275Z,24.00
2018-02-03T21:13:22.983Z,20.80
2018-02-03T21:15:50.808Z,23.53
2018-02-03T21:18:18.399Z,29.93
2018-02-03T21:20:46.117Z,42.70
2018-02-03T21:23:18.147Z,41.87
2018-02-03T21:25:45.825Z,45.83
2018-02-03T21:28:14.316Z,52.33
2018-02-03T21:30:42.854Z,30.13
2018-02-03T21:33:10.491Z,27.50
2018-02-03T21:35:38.178Z,27.13
2018-02-03T21:38:05.841Z,26.97
2018-02-03T21:40:33.465Z,28.97
2018-02-03T21:43:01.121Z,27.10
2018-02-03T21:45:28.826Z,23.57
2018-02-03T21:47:56.456Z,22.67
2018-02-03T21:50:24.101Z,28.30
2018-02-03T21:52:51.789Z,38.17
2018-02-03T21:55:19.449Z,36.97
2018-02-03T21:57:47.080Z,42.17
2018-02-03T22:00:14.756Z,29.00
2018-02-03T22:02:42.464Z,29.47
2018-02-03T22:05:10.020Z,42.90
2018-02-03T22:07:37.726Z,25.57
2018-02-03T22:10:05.369Z,23.53
2018-02-03T22:12:33.006Z,21.13
2018-02-03T22:17:41.804Z,24.00
2018-02-03T22:20:09.492Z,23.47
2018-02-03T22:22:37.198Z,24.27
2018-02-03T22:25:04.865Z,51.50
2018-02-03T22:27:32.545Z,30.53
2018-02-03T22:30:00.180Z,19.80
2018-02-03T22:32:27.827Z,24.53
2018-02-03T22:34:55.485Z,22.67
2018-02-03T22:37:23.108Z,23.80
2018-02-03T22:39:50.749Z,22.50
2018-02-03T22:42:18.433Z,25.13
2018-02-03T22:44:46.088Z,26.50
2018-02-03T22:47:13.724Z,27.97
2018-02-03T22:49:41.437Z,22.23
2018-02-03T22:52:09.084Z,25.53
2018-02-03T22:54:36.730Z,24.20
2018-02-03T22:57:04.444Z,21.60
2018-02-03T22:59:32.074Z,23.40
2018-02-03T23:01:59.722Z,21.37
2018-02-03T23:04:27.416Z,20.13
2018-02-03T23:06:55.029Z,22.37
2018-02-03T23:09:22.672Z,18.67
2018-02-03T23:11:50.377Z,22.60
2018-02-03T23:14:18.017Z,19.23
2018-02-03T23:16:45.655Z,21.13
2018-02-03T23:19:13.368Z,24.43
2018-02-03T23:21:41.007Z,25.87
2018-02-03T23:24:08.654Z,22.93
2018-02-03T23:26:36.341Z,24.33
2018-02-03T23:29:03.969Z,19.63
2018-02-03T23:31:31.609Z,21.27
2018-02-03T23:33:59.306Z,23.30
2018-02-03T23:36:26.946Z,22.53
2018-02-03T23:38:54.581Z,21.70
2018-02-03T23:44:02.338Z,26.15
2018-02-03T23:46:30.034Z,19.60
2018-02-03T23:48:57.673Z,21.97
2018-02-03T23:51:25.657Z,19.37
2018-02-03T23:53:53.369Z,26.63
2018-02-03T23:56:21.004Z,23.53
2018-02-03T23:58:48.688Z,21.33
